createdAt,value
2022-09-12T00:01:28.629Z,4.20
2022-09-12T00:03:59.825Z,4.10
2022-09-12T00:06:34.120Z,4.50
2022-09-12T00:09:06.732Z,4.30
2022-09-12T00:11:39.633Z,4.30
2022-09-12T00:14:09.831Z,4.00
2022-09-12T00:16:38.349Z,4.10
2022-09-12T00:19:07.507Z,3.70
2022-09-12T00:21:38.196Z,3.60
2022-09-12T00:24:06.683Z,3.90
2022-09-12T00:26:34.945Z,3.70
2022-09-12T00:29:03.739Z,3.90
2022-09-12T00:31:32.282Z,3.60
2022-09-12T00:34:01.738Z,3.60
2022-09-12T00:36:30.551Z,3.70
2022-09-12T00:38:59.757Z,3.50
2022-09-12T00:41:31.566Z,3.60
2022-09-12T00:44:02.918Z,3.40
2022-09-12T00:46:40.230Z,3.20
2022-09-12T00:49:22.409Z,3.50
2022-09-12T00:51:56.408Z,3.80
2022-09-12T00:54:28.619Z,3.40
2022-09-12T00:57:01.711Z,3.90
2022-09-12T00:59:34.881Z,3.30
2022-09-12T01:02:04.183Z,3.50
2022-09-12T01:04:32.875Z,3.60
2022-09-12T01:07:00.973Z,3.70
2022-09-12T01:09:29.135Z,3.70
2022-09-12T01:11:57.488Z,3.60
2022-09-12T01:14:25.634Z,4.10
2022-09-12T01:16:53.951Z,3.80
2022-09-12T01:20:15.717Z,3.60
2022-09-12T01:23:13.084Z,3.80
2022-09-12T01:26:02.408Z,4.00
2022-09-12T01:29:00.461Z,3.40
2022-09-12T01:31:37.845Z,3.60
2022-09-12T01:34:32.633Z,3.70
2022-09-12T01:37:21.925Z,3.20
2022-09-12T01:40:02.471Z,3.40
2022-09-12T01:42:30.456Z,3.20
2022-09-12T01:45:07.681Z,3.70
2022-09-12T01:47:50.296Z,3.30
2022-09-12T01:50:23.230Z,3.70
2022-09-12T01:52:54.098Z,3.30
2022-09-12T01:55:44.243Z,2.90
2022-09-12T01:58:23.811Z,3.40
2022-09-12T02:01:04.210Z,3.30
2022-09-12T02:03:44.836Z,3.20
2022-09-12T02:06:22.679Z,3.50
2022-09-12T02:08:55.024Z,3.70
2022-09-12T02:11:23.237Z,3.80
2022-09-12T02:14:01.136Z,3.90
2022-09-12T02:16:35.257Z,3.50
2022-09-12T02:19:24.810Z,3.50
2022-09-12T02:21:59.946Z,3.80
2022-09-12T02:24:36.724Z,3.70
2022-09-12T02:27:34.331Z,3.60
2022-09-12T02:30:02.612Z,3.40
2022-09-12T02:32:48.463Z,3.80
2022-09-12T02:35:44.007Z,3.80
2022-09-12T02:38:15.867Z,3.50
2022-09-12T02:40:44.487Z,4.10
2022-09-12T02:43:12.705Z,3.80
2022-09-12T02:45:41.191Z,3.80
2022-09-12T02:48:24.121Z,3.70
2022-09-12T02:50:52.602Z,3.90
2022-09-12T02:53:21.319Z,3.70
2022-09-12T02:55:50.284Z,3.70
2022-09-12T02:58:24.860Z,3.70
2022-09-12T03:01:07.827Z,3.70
2022-09-12T03:03:48.287Z,3.70
2022-09-12T03:06:35.578Z,4.00
2022-09-12T03:09:10.510Z,4.30
2022-09-12T03:11:47.403Z,4.50
2022-09-12T03:14:31.999Z,4.20
2022-09-12T03:17:44.352Z,4.10
2022-09-12T03:20:18.190Z,4.20
2022-09-12T03:22:59.418Z,4.50
2022-09-12T03:25:36.239Z,4.20
2022-09-12T03:28:08.551Z,5.00
2022-09-12T03:30:56.628Z,6.40
2022-09-12T03:33:25.879Z,5.80
2022-09-12T03:35:55.602Z,4.70
2022-09-12T03:40:54.810Z,6.40
2022-09-12T03:43:23.724Z,6.10
2022-09-12T03:45:54.773Z,5.40
2022-09-12T03:48:22.875Z,4.80
2022-09-12T03:50:51.202Z,4.80
2022-09-12T03:53:19.293Z,4.60
2022-09-12T03:55:47.304Z,4.80
2022-09-12T03:58:15.537Z,4.40
2022-09-12T04:00:44.409Z,4.30
2022-09-12T04:03:12.534Z,4.60
2022-09-12T04:05:40.711Z,4.30
2022-09-12T04:08:08.783Z,4.40
2022-09-12T04:10:37.015Z,4.80
2022-09-12T04:13:05.148Z,4.60
2022-09-12T04:15:33.208Z,4.70
2022-09-12T04:18:05.568Z,4.80
2022-09-12T04:20:34.215Z,4.80
2022-09-12T04:23:02.334Z,4.40
2022-09-12T04:25:31.487Z,4.40
2022-09-12T04:27:59.640Z,4.40
2022-09-12T04:30:27.839Z,4.60
2022-09-12T04:32:57.490Z,4.30
2022-09-12T04:35:27.754Z,4.80
2022-09-12T04:37:55.846Z,4.90
2022-09-12T04:40:24.139Z,4.80
2022-09-12T04:42:52.277Z,5.30
2022-09-12T04:45:20.384Z,4.70
2022-09-12T04:47:48.717Z,4.80
2022-09-12T04:50:17.202Z,4.50
2022-09-12T04:52:53.543Z,5.00
2022-09-12T04:55:23.119Z,4.50
2022-09-12T04:57:52.134Z,4.90
2022-09-12T05:00:20.686Z,4.60
2022-09-12T05:02:49.356Z,5.50
2022-09-12T05:05:17.607Z,4.90
2022-09-12T05:07:45.699Z,4.80
2022-09-12T05:10:13.888Z,4.70
2022-09-12T05:12:42.060Z,4.70
2022-09-12T05:15:10.445Z,4.70
2022-09-12T05:17:38.623Z,4.60
2022-09-12T05:20:08.030Z,4.90
2022-09-12T05:22:36.077Z,4.90
2022-09-12T05:25:05.886Z,5.10
2022-09-12T05:30:01.923Z,4.50
2022-09-12T05:32:32.557Z,4.90
2022-09-12T05:35:00.662Z,5.20
2022-09-12T05:37:28.976Z,5.00
2022-09-12T05:39:59.350Z,5.00
2022-09-12T05:42:30.184Z,5.00
2022-09-12T05:44:58.706Z,5.70
2022-09-12T05:47:26.799Z,6.00
2022-09-12T05:49:54.928Z,5.70
2022-09-12T05:52:23.133Z,5.70
2022-09-12T05:54:51.334Z,5.40
2022-09-12T05:57:19.574Z,5.20
2022-09-12T05:59:48.876Z,5.10
2022-09-12T06:02:17.196Z,5.00
2022-09-12T06:04:55.483Z,5.50
2022-09-12T06:07:24.180Z,5.00
2022-09-12T06:09:52.264Z,5.40
2022-09-12T06:12:20.322Z,5.60
2022-09-12T06:14:48.447Z,5.60
2022-09-12T06:17:16.641Z,5.30
2022-09-12T06:19:45.748Z,5.70
2022-09-12T06:22:14.116Z,5.20
2022-09-12T06:24:42.194Z,5.60
2022-09-12T06:27:10.231Z,5.80
2022-09-12T06:29:38.436Z,5.70
2022-09-12T06:32:07.348Z,5.80
2022-09-12T06:34:36.598Z,7.20
2022-09-12T06:37:04.859Z,5.80
2022-09-12T06:39:33.295Z,5.40
2022-09-12T06:42:01.362Z,5.90
2022-09-12T06:44:29.990Z,5.20
2022-09-12T06:46:58.848Z,6.20
2022-09-12T06:49:26.946Z,5.10
2022-09-12T06:51:55.089Z,5.10
2022-09-12T06:54:23.609Z,5.40
2022-09-12T06:56:51.703Z,5.00
2022-09-12T06:59:20.238Z,5.00
2022-09-12T07:01:48.506Z,4.70
2022-09-12T07:04:16.725Z,4.80
2022-09-12T07:06:45.198Z,5.80
2022-09-12T07:09:17.957Z,4.50
2022-09-12T07:11:47.383Z,4.40
2022-09-12T07:14:15.666Z,4.60
2022-09-12T07:16:44.380Z,4.60
2022-09-12T07:19:12.878Z,5.10
2022-09-12T07:21:41.691Z,4.90
2022-09-12T07:24:11.038Z,4.30
2022-09-12T07:26:42.630Z,4.40
2022-09-12T07:29:36.094Z,4.50
2022-09-12T07:32:06.163Z,4.90
2022-09-12T07:34:35.929Z,4.20
2022-09-12T07:37:04.806Z,4.30
2022-09-12T07:39:32.985Z,3.90
2022-09-12T07:42:01.398Z,4.30
2022-09-12T07:44:31.254Z,4.20
2022-09-12T07:46:59.429Z,4.30
2022-09-12T07:49:27.577Z,3.80
2022-09-12T07:51:55.692Z,4.20
2022-09-12T07:54:24.281Z,4.00
2022-09-12T07:56:52.407Z,4.30
2022-09-12T07:59:41.460Z,3.60
2022-09-12T08:02:17.395Z,3.60
2022-09-12T08:04:49.670Z,4.00
2022-09-12T08:07:19.339Z,3.50
2022-09-12T08:09:47.678Z,3.10
2022-09-12T08:12:17.837Z,3.10
2022-09-12T08:14:46.637Z,3.10
2022-09-12T08:17:14.814Z,3.20
2022-09-12T08:19:43.776Z,2.70
2022-09-12T08:22:12.529Z,3.10
2022-09-12T08:24:40.833Z,3.00
2022-09-12T08:27:09.044Z,3.30
2022-09-12T08:29:37.415Z,3.20
2022-09-12T08:32:05.765Z,2.90
2022-09-12T08:34:33.896Z,3.30
2022-09-12T08:37:02.014Z,3.20
2022-09-12T08:39:30.147Z,3.30
2022-09-12T08:42:03.574Z,3.00
2022-09-12T08:44:38.974Z,3.30
2022-09-12T08:47:19.130Z,2.80
2022-09-12T08:49:53.019Z,2.90
2022-09-12T08:52:46.504Z,2.60
2022-09-12T08:55:31.208Z,2.70
2022-09-12T08:58:01.722Z,2.90
2022-09-12T09:01:00.186Z,2.80
2022-09-12T09:03:44.488Z,2.80
2022-09-12T09:06:31.080Z,2.90
2022-09-12T09:09:37.045Z,3.10
2022-09-12T09:12:17.045Z,2.90
2022-09-12T09:14:51.158Z,2.60
2022-09-12T09:17:20.302Z,2.70
2022-09-12T09:19:57.455Z,2.60
2022-09-12T09:22:42.012Z,2.80
2022-09-12T09:25:24.302Z,2.90
2022-09-12T09:27:57.347Z,3.10
2022-09-12T09:30:25.539Z,2.80
2022-09-12T09:32:58.954Z,2.90
2022-09-12T09:35:45.595Z,2.70
2022-09-12T09:39:04.031Z,3.00
2022-09-12T09:41:53.574Z,2.80
2022-09-12T09:44:22.043Z,3.20
2022-09-12T09:46:55.755Z,3.00
2022-09-12T09:49:27.045Z,2.90
2022-09-12T09:51:58.805Z,3.20
2022-09-12T09:54:37.141Z,3.10
2022-09-12T09:57:05.450Z,2.80
2022-09-12T09:59:34.248Z,3.00
2022-09-12T10:02:14.159Z,2.90
2022-09-12T10:04:55.353Z,3.20
2022-09-12T10:07:25.582Z,2.90
2022-09-12T10:10:17.315Z,3.10
2022-09-12T10:12:46.033Z,3.00
2022-09-12T10:15:28.147Z,2.90
2022-09-12T10:17:57.066Z,2.70
2022-09-12T10:20:44.343Z,2.90
2022-09-12T10:23:41.275Z,2.60
2022-09-12T10:26:14.790Z,2.50
2022-09-12T10:28:52.402Z,2.50
2022-09-12T10:31:29.181Z,2.20
2022-09-12T10:34:01.127Z,2.30
2022-09-12T10:36:38.561Z,2.60
2022-09-12T10:39:11.853Z,2.70
2022-09-12T10:41:41.685Z,2.30
2022-09-12T10:44:17.769Z,2.30
2022-09-12T10:46:45.952Z,2.20
2022-09-12T10:49:21.668Z,2.20
2022-09-12T10:51:50.953Z,1.80
2022-09-12T10:54:21.680Z,1.80
2022-09-12T10:57:17.188Z,2.10
2022-09-12T11:00:11.082Z,1.70
2022-09-12T11:02:57.692Z,1.90
2022-09-12T11:05:46.182Z,2.10
2022-09-12T11:08:32.884Z,2.10
2022-09-12T11:11:45.917Z,1.90
2022-09-12T11:14:40.344Z,1.70
2022-09-12T11:17:23.276Z,1.90
2022-09-12T11:20:12.444Z,2.10
2022-09-12T11:23:04.670Z,2.10
2022-09-12T11:26:04.447Z,2.00
2022-09-12T11:28:55.924Z,2.10
2022-09-12T11:31:23.995Z,2.10
2022-09-12T11:33:56.485Z,2.30
2022-09-12T11:36:33.286Z,2.10
2022-09-12T11:39:11.347Z,1.90
2022-09-12T11:41:43.462Z,1.80
2022-09-12T11:44:15.258Z,1.60
2022-09-12T11:46:48.643Z,2.00
2022-09-12T11:49:30.488Z,1.80
2022-09-12T11:53:06.615Z,1.90
2022-09-12T11:55:50.817Z,2.00
2022-09-12T11:58:25.148Z,1.90
2022-09-12T12:00:59.203Z,2.00
2022-09-12T12:03:40.662Z,2.00
2022-09-12T12:06:31.656Z,1.70
2022-09-12T12:09:00.412Z,1.70
2022-09-12T12:11:34.625Z,1.80
2022-09-12T12:14:06.428Z,1.90
2022-09-12T12:16:38.836Z,1.70
2022-09-12T12:19:15.767Z,1.70
2022-09-12T12:21:45.285Z,1.50
2022-09-12T12:24:16.010Z,2.10
2022-09-12T12:26:57.466Z,1.90
2022-09-12T12:29:31.476Z,1.90
2022-09-12T12:32:02.049Z,1.90
2022-09-12T12:34:42.128Z,1.80
2022-09-12T12:37:25.635Z,1.70
2022-09-12T12:40:10.090Z,2.00
2022-09-12T12:42:38.331Z,2.10
2022-09-12T12:45:09.647Z,2.00
2022-09-12T12:47:37.890Z,1.60
2022-09-12T12:50:20.826Z,1.70
2022-09-12T12:53:03.121Z,1.80
2022-09-12T12:56:01.564Z,1.70
2022-09-12T12:58:38.459Z,1.70
2022-09-12T13:01:43.825Z,1.80
2022-09-12T13:04:20.129Z,1.80
2022-09-12T13:07:07.917Z,2.00
2022-09-12T13:09:44.693Z,1.80
2022-09-12T13:12:48.158Z,1.70
2022-09-12T13:15:39.655Z,1.80
2022-09-12T13:18:13.330Z,2.00
2022-09-12T13:21:23.247Z,1.90
2022-09-12T13:24:19.208Z,2.10
2022-09-12T13:26:48.283Z,2.00
2022-09-12T13:29:18.778Z,2.10
2022-09-12T13:31:51.895Z,1.90
2022-09-12T13:34:25.384Z,2.00
2022-09-12T13:37:22.891Z,1.70
2022-09-12T13:40:13.206Z,1.70
2022-09-12T13:42:44.470Z,2.00
2022-09-12T13:45:27.020Z,1.80
2022-09-12T13:49:18.249Z,1.70
2022-09-12T13:52:21.414Z,1.80
2022-09-12T13:55:25.373Z,1.80
2022-09-12T13:58:26.439Z,1.80
2022-09-12T14:01:12.075Z,1.50
2022-09-12T14:04:13.030Z,1.40
2022-09-12T14:06:50.154Z,1.40
2022-09-12T14:14:57.031Z,1.60
2022-09-12T14:17:40.191Z,1.70
2022-09-12T14:20:15.094Z,2.10
2022-09-12T14:22:44.412Z,1.90
2022-09-12T14:25:18.063Z,1.80
2022-09-12T14:27:52.678Z,1.60
2022-09-12T14:30:22.945Z,1.60
2022-09-12T14:33:18.843Z,1.80
2022-09-12T14:35:49.789Z,1.80
2022-09-12T14:38:17.781Z,1.80
2022-09-12T14:40:49.079Z,2.00
2022-09-12T14:43:27.952Z,1.50
2022-09-12T14:46:02.416Z,1.90
2022-09-12T14:48:34.785Z,1.70
2022-09-12T14:51:04.357Z,2.00
2022-09-12T14:53:35.099Z,1.90
2022-09-12T14:56:06.982Z,2.00
2022-09-12T14:58:35.708Z,2.10
2022-09-12T15:01:24.488Z,1.60
2022-09-12T15:03:55.787Z,1.90
2022-09-12T15:06:30.924Z,1.70
2022-09-12T15:09:13.783Z,1.50
2022-09-12T15:11:41.927Z,1.80
2022-09-12T15:14:14.300Z,1.70
2022-09-12T15:16:42.831Z,1.60
2022-09-12T15:19:10.954Z,1.90
2022-09-12T15:21:39.075Z,1.70
2022-09-12T15:24:09.368Z,1.70
2022-09-12T15:26:37.610Z,1.90
2022-09-12T15:29:05.765Z,1.60
2022-09-12T15:31:33.961Z,2.00
2022-09-12T15:34:02.700Z,1.90
2022-09-12T15:36:31.677Z,1.50
2022-09-12T15:38:59.806Z,1.70
2022-09-12T15:41:37.005Z,1.80
2022-09-12T15:44:08.377Z,1.70
2022-09-12T15:46:36.757Z,2.00
2022-09-12T15:49:05.003Z,1.90
2022-09-12T15:51:33.758Z,1.90
2022-09-12T15:54:04.878Z,1.90
2022-09-12T15:56:32.934Z,1.60
2022-09-12T15:59:01.050Z,1.80
2022-09-12T16:01:29.599Z,2.00
2022-09-12T16:03:58.012Z,2.00
2022-09-12T16:06:33.546Z,2.00
2022-09-12T16:09:16.880Z,2.00
2022-09-12T16:11:51.377Z,1.80
2022-09-12T16:14:20.103Z,2.00
2022-09-12T16:16:57.659Z,2.20
2022-09-12T16:19:25.935Z,2.20
2022-09-12T16:21:55.202Z,2.20
2022-09-12T16:24:42.808Z,2.30
2022-09-12T16:29:03.292Z,2.20
2022-09-12T16:30:39.707Z,2.10
2022-09-12T16:33:08.733Z,2.10
2022-09-12T16:35:39.575Z,2.20
2022-09-12T16:38:08.170Z,1.90
2022-09-12T16:40:36.516Z,2.20
2022-09-12T16:43:04.697Z,2.30
2022-09-12T16:45:33.070Z,2.30
2022-09-12T16:48:01.291Z,2.20
2022-09-12T16:50:30.476Z,2.30
2022-09-12T16:52:59.312Z,2.40
2022-09-12T16:55:32.241Z,2.10
2022-09-12T16:58:00.769Z,2.20
2022-09-12T17:00:28.929Z,2.30
2022-09-12T17:02:57.798Z,4.20
2022-09-12T17:05:27.882Z,5.50
2022-09-12T17:07:56.014Z,21.10
2022-09-12T17:10:24.144Z,37.40
2022-09-12T17:12:54.369Z,22.20
2022-09-12T17:15:22.512Z,20.10
2022-09-12T17:17:52.232Z,17.10
2022-09-12T17:22:49.458Z,6.30
2022-09-12T17:25:17.649Z,6.60
2022-09-12T17:27:45.805Z,5.00
2022-09-12T17:30:13.894Z,4.90
2022-09-12T17:32:42.104Z,3.70
2022-09-12T17:35:11.482Z,2.40
2022-09-12T17:37:42.211Z,2.20
2022-09-12T17:40:10.801Z,2.30
2022-09-12T17:42:39.204Z,2.20
2022-09-12T17:45:08.061Z,2.50
2022-09-12T17:47:36.392Z,6.60
2022-09-12T17:50:30.234Z,8.20
2022-09-12T17:52:57.777Z,12.00
2022-09-12T17:55:29.618Z,12.20
2022-09-12T17:58:01.117Z,13.10
2022-09-12T18:00:49.425Z,13.60
2022-09-12T18:03:23.548Z,12.40
2022-09-12T18:06:02.016Z,12.30
2022-09-12T18:08:31.410Z,13.90
2022-09-12T18:11:05.778Z,16.50
2022-09-12T18:13:36.196Z,18.30
2022-09-12T18:16:09.867Z,20.10
2022-09-12T18:18:40.092Z,17.90
2022-09-12T18:21:10.738Z,19.00
2022-09-12T18:23:39.594Z,21.10
2022-09-12T18:26:10.921Z,23.40
2022-09-12T18:28:42.012Z,23.10
2022-09-12T18:32:02.896Z,21.40
2022-09-12T18:35:00.850Z,25.80
2022-09-12T18:37:38.137Z,29.20
2022-09-12T18:40:07.141Z,22.20
2022-09-12T18:42:40.995Z,15.20
2022-09-12T18:45:11.842Z,9.90
2022-09-12T18:47:52.380Z,9.10
2022-09-12T18:50:36.134Z,7.10
2022-09-12T18:53:04.557Z,8.90
2022-09-12T18:55:38.988Z,7.30
2022-09-12T18:58:15.719Z,4.00
2022-09-12T19:01:38.099Z,2.80
2022-09-12T19:04:09.164Z,3.40
2022-09-12T19:06:40.314Z,3.10
2022-09-12T19:09:10.175Z,3.30
2022-09-12T19:14:08.028Z,8.00
2022-09-12T19:16:37.003Z,8.50
2022-09-12T19:19:05.962Z,7.70
2022-09-12T19:21:37.596Z,4.80
2022-09-12T19:24:12.636Z,4.00
2022-09-12T19:27:43.335Z,4.10
2022-09-12T19:30:12.747Z,3.90
2022-09-12T19:32:43.169Z,3.60
2022-09-12T19:38:21.343Z,3.70
2022-09-12T19:40:57.176Z,6.20
2022-09-12T19:43:26.625Z,10.70
2022-09-12T19:45:55.958Z,14.70
2022-09-12T19:48:24.856Z,13.80
2022-09-12T19:50:53.212Z,18.40
2022-09-12T19:53:21.499Z,15.10
2022-09-12T19:55:49.755Z,9.70
2022-09-12T19:58:18.000Z,7.00
2022-09-12T20:00:46.103Z,5.40
2022-09-12T20:03:14.246Z,5.20
2022-09-12T20:05:43.418Z,5.40
2022-09-12T20:08:11.973Z,5.30
2022-09-12T20:10:40.240Z,5.10
2022-09-12T20:13:08.919Z,5.40
2022-09-12T20:15:46.758Z,5.70
2022-09-12T20:18:14.972Z,5.10
2022-09-12T20:20:43.181Z,4.70
2022-09-12T20:23:11.899Z,4.30
2022-09-12T20:25:40.137Z,4.00
2022-09-12T20:28:08.277Z,3.90
2022-09-12T20:30:36.404Z,4.00
2022-09-12T20:33:04.640Z,4.20
2022-09-12T20:35:33.356Z,3.90
2022-09-12T20:38:04.682Z,4.40
2022-09-12T20:40:35.684Z,4.00
2022-09-12T20:43:05.470Z,3.90
2022-09-12T20:45:34.023Z,3.80
2022-09-12T20:48:02.413Z,3.80
2022-09-12T20:50:45.195Z,3.80
2022-09-12T20:53:13.675Z,3.60
2022-09-12T20:55:50.893Z,3.70
2022-09-12T20:58:23.468Z,4.70
2022-09-12T21:00:52.122Z,3.80
2022-09-12T21:03:20.677Z,3.90
2022-09-12T21:05:48.964Z,3.70
2022-09-12T21:08:18.822Z,3.80
2022-09-12T21:10:47.399Z,4.00
2022-09-12T21:13:17.516Z,4.10
2022-09-12T21:15:49.299Z,3.70
2022-09-12T21:18:35.990Z,3.50
2022-09-12T21:21:10.511Z,3.80
2022-09-12T21:24:06.470Z,3.90
2022-09-12T21:26:39.084Z,3.30
2022-09-12T21:29:33.999Z,3.30
2022-09-12T21:32:08.215Z,3.20
2022-09-12T21:34:38.292Z,3.40
2022-09-12T21:37:06.575Z,3.40
2022-09-12T21:39:34.850Z,3.00
2022-09-12T21:42:03.154Z,3.50
2022-09-12T21:44:31.443Z,3.40
2022-09-12T21:46:59.854Z,3.20
2022-09-12T21:49:28.750Z,3.30
2022-09-12T21:52:46.467Z,3.50
2022-09-12T21:55:15.481Z,3.10
2022-09-12T21:57:44.016Z,3.30
2022-09-12T22:00:39.057Z,3.20
2022-09-12T22:03:11.294Z,3.10
2022-09-12T22:05:52.347Z,3.10
2022-09-12T22:08:55.310Z,2.90
2022-09-12T22:12:04.510Z,3.00
2022-09-12T22:14:37.690Z,2.80
2022-09-12T22:17:10.318Z,2.80
2022-09-12T22:19:40.791Z,2.70
2022-09-12T22:22:30.119Z,3.10
2022-09-12T22:24:59.086Z,3.10
2022-09-12T22:27:27.931Z,2.70
2022-09-12T22:29:58.561Z,2.70
2022-09-12T22:32:26.874Z,2.60
2022-09-12T22:34:54.963Z,2.60
2022-09-12T22:37:23.072Z,3.00
2022-09-12T22:39:51.317Z,2.70
2022-09-12T22:42:19.390Z,2.70
2022-09-12T22:44:47.600Z,2.60
2022-09-12T22:47:15.852Z,2.80
2022-09-12T22:49:44.208Z,2.60
2022-09-12T22:52:14.682Z,2.40
2022-09-12T22:54:43.748Z,2.60
2022-09-12T22:57:12.317Z,2.40
2022-09-12T22:59:41.071Z,2.30
2022-09-12T23:02:09.848Z,2.80
2022-09-12T23:04:38.052Z,2.40
2022-09-12T23:07:06.129Z,2.40
2022-09-12T23:09:35.587Z,2.60
2022-09-12T23:12:26.403Z,2.70
2022-09-12T23:14:54.729Z,2.50
2022-09-12T23:17:22.947Z,2.70
2022-09-12T23:19:51.065Z,2.50
2022-09-12T23:22:19.252Z,2.50
2022-09-12T23:24:47.414Z,2.70
2022-09-12T23:27:15.588Z,2.70
2022-09-12T23:29:43.857Z,2.70
2022-09-12T23:32:12.191Z,2.70
2022-09-12T23:34:40.239Z,2.60
2022-09-12T23:37:08.396Z,2.60
2022-09-12T23:39:36.419Z,2.50
2022-09-12T23:42:04.748Z,2.60
2022-09-12T23:44:32.950Z,2.80
2022-09-12T23:47:01.151Z,2.70
2022-09-12T23:49:29.201Z,2.90
2022-09-12T23:51:57.294Z,2.60
2022-09-12T23:54:25.504Z,2.50
2022-09-12T23:56:53.846Z,2.70
2022-09-12T23:59:21.947Z,2.80
